createdAt,value
2023-01-29T00:00:03.951Z,96277.38
2023-01-29T00:03:08.763Z,96279.44
2023-01-29T00:06:12.081Z,96274.91
2023-01-29T00:09:14.172Z,96284.16
2023-01-29T00:12:15.955Z,96281.19
2023-01-29T00:15:17.966Z,96276.47
2023-01-29T00:18:19.813Z,96277.44
2023-01-29T00:21:23.490Z,96280.91
2023-01-29T00:24:25.421Z,96280.97
2023-01-29T00:27:27.210Z,96280.41
2023-01-29T00:30:28.977Z,96280.97
2023-01-29T00:33:30.859Z,96281.78
2023-01-29T00:36:34.045Z,96276.75
2023-01-29T00:39:47.093Z,96281.47
2023-01-29T00:42:49.986Z,96281.97
2023-01-29T00:45:52.085Z,96290.06
2023-01-29T00:48:53.991Z,96291.16
2023-01-29T00:51:57.185Z,96287.69
2023-01-29T00:55:00.562Z,96283.75
2023-01-29T00:58:02.420Z,96287.69
2023-01-29T01:01:04.486Z,96291.69
2023-01-29T01:04:07.282Z,96284.34
2023-01-29T01:10:15.819Z,96283.72
2023-01-29T01:13:17.979Z,96287.66
2023-01-29T01:16:19.827Z,96292.13
2023-01-29T01:19:21.639Z,96297.94
2023-01-29T01:22:25.007Z,96295.38
2023-01-29T01:25:27.522Z,96289.63
2023-01-29T01:28:29.319Z,96297.38
2023-01-29T01:31:31.235Z,96295.84
2023-01-29T01:34:33.342Z,96299.81
2023-01-29T01:37:37.926Z,96289.75
2023-01-29T01:40:45.113Z,96292.34
2023-01-29T01:43:49.426Z,96286.25
2023-01-29T01:46:51.361Z,96290.78
2023-01-29T01:49:54.756Z,96287.31
2023-01-29T01:53:02.527Z,96286.69
2023-01-29T01:56:09.432Z,96290.34
2023-01-29T01:59:13.706Z,96290.34
2023-01-29T02:02:17.481Z,96283.47
2023-01-29T02:05:19.452Z,96274.91
2023-01-29T02:08:30.120Z,96283.91
2023-01-29T02:11:35.647Z,96278.16
2023-01-29T02:14:39.726Z,96290.63
2023-01-29T02:17:41.552Z,96285.25
2023-01-29T02:20:50.015Z,96284.00
2023-01-29T02:24:20.169Z,96277.63
2023-01-29T02:27:32.793Z,96279.34
2023-01-29T02:30:40.420Z,96285.63
2023-01-29T02:33:54.812Z,96295.38
2023-01-29T02:37:03.244Z,96300.38
2023-01-29T02:40:17.938Z,96310.97
2023-01-29T02:43:32.333Z,96316.56
2023-01-29T02:46:40.960Z,96315.50
2023-01-29T02:49:51.285Z,96320.25
2023-01-29T02:53:00.168Z,96310.31
2023-01-29T02:56:08.436Z,96312.00
2023-01-29T02:59:15.503Z,96303.03
2023-01-29T03:02:24.086Z,96308.59
2023-01-29T03:05:31.328Z,96314.66
2023-01-29T03:08:38.019Z,96311.78
2023-01-29T03:11:42.884Z,96305.34
2023-01-29T03:14:48.405Z,96310.59
2023-01-29T03:17:55.672Z,96308.31
2023-01-29T03:21:02.340Z,96308.06
2023-01-29T03:24:06.802Z,96318.53
2023-01-29T03:27:10.693Z,96324.41
2023-01-29T03:30:17.054Z,96321.41
2023-01-29T03:33:24.254Z,96316.53
2023-01-29T03:36:33.595Z,96323.66
2023-01-29T03:39:36.475Z,96313.22
2023-01-29T03:42:50.971Z,96314.53
2023-01-29T03:46:00.283Z,96310.94
2023-01-29T03:49:12.300Z,96305.22
2023-01-29T03:52:19.740Z,96299.56
2023-01-29T03:55:28.125Z,96299.28
2023-01-29T03:58:37.197Z,96303.38
2023-01-29T04:01:45.530Z,96307.53
2023-01-29T04:04:52.367Z,96310.41
2023-01-29T04:08:01.865Z,96308.31
2023-01-29T04:11:10.340Z,96304.31
2023-01-29T04:14:14.212Z,96295.63
2023-01-29T04:17:20.230Z,96297.66
2023-01-29T04:20:24.772Z,96287.38
2023-01-29T04:23:27.667Z,96283.66
2023-01-29T04:26:48.691Z,96284.50
2023-01-29T04:30:07.622Z,96282.50
2023-01-29T04:33:22.711Z,96276.13
2023-01-29T04:36:33.978Z,96282.47
2023-01-29T04:39:43.709Z,96276.94
2023-01-29T04:42:54.330Z,96282.94
2023-01-29T04:46:11.228Z,96281.16
2023-01-29T04:49:22.276Z,96290.88
2023-01-29T04:52:35.381Z,96286.09
2023-01-29T04:55:43.246Z,96281.88
2023-01-29T04:58:49.705Z,96286.44
2023-01-29T05:01:52.393Z,96287.59
2023-01-29T05:04:56.346Z,96283.13
2023-01-29T05:08:01.127Z,96282.31
2023-01-29T05:11:03.232Z,96288.56
2023-01-29T05:14:09.882Z,96276.78
2023-01-29T05:17:16.137Z,96280.94
2023-01-29T05:20:18.420Z,96280.66
2023-01-29T05:23:23.458Z,96287.91
2023-01-29T05:26:25.414Z,96278.66
2023-01-29T05:29:27.252Z,96286.53
2023-01-29T05:32:29.129Z,96275.72
2023-01-29T05:35:31.289Z,96287.47
2023-01-29T05:38:34.571Z,96285.03
2023-01-29T05:41:36.450Z,96293.97
2023-01-29T05:44:38.390Z,96297.66
2023-01-29T05:47:40.174Z,96294.19
2023-01-29T05:50:41.954Z,96304.31
2023-01-29T05:53:45.212Z,96291.44
2023-01-29T05:56:47.321Z,96297.66
2023-01-29T05:59:49.134Z,96303.13
2023-01-29T06:02:50.966Z,96301.50
2023-01-29T06:05:52.984Z,96311.16
2023-01-29T06:08:56.245Z,96306.91
2023-01-29T06:11:58.552Z,96312.94
2023-01-29T06:15:00.415Z,96299.25
2023-01-29T06:18:02.249Z,96300.09
2023-01-29T06:21:05.882Z,96306.81
2023-01-29T06:24:09.508Z,96301.41
2023-01-29T06:27:11.363Z,96298.00
2023-01-29T06:30:14.781Z,96294.16
2023-01-29T06:33:16.840Z,96305.00
2023-01-29T06:36:18.685Z,96308.72
2023-01-29T06:39:21.919Z,96304.69
2023-01-29T06:42:23.898Z,96309.38
2023-01-29T06:45:25.762Z,96303.13
2023-01-29T06:48:27.517Z,96303.50
2023-01-29T06:51:29.318Z,96294.84
2023-01-29T06:54:32.489Z,96298.00
2023-01-29T06:57:34.252Z,96302.38
2023-01-29T07:00:37.014Z,96300.94
2023-01-29T07:03:38.863Z,96296.03
2023-01-29T07:06:42.256Z,96298.34
2023-01-29T07:09:45.569Z,96298.63
2023-01-29T07:12:47.382Z,96293.91
2023-01-29T07:15:49.275Z,96304.56
2023-01-29T07:18:51.275Z,96303.59
2023-01-29T07:21:53.183Z,96304.72
2023-01-29T07:24:56.620Z,96300.47
2023-01-29T07:28:01.203Z,96300.84
2023-01-29T07:31:03.291Z,96306.50
2023-01-29T07:34:06.295Z,96301.94
2023-01-29T07:37:08.514Z,96291.81
2023-01-29T07:40:12.856Z,96290.72
2023-01-29T07:43:15.116Z,96295.03
2023-01-29T07:46:17.005Z,96303.19
2023-01-29T07:49:19.117Z,96291.81
2023-01-29T07:52:22.470Z,96284.03
2023-01-29T07:55:25.800Z,96278.09
2023-01-29T07:58:27.677Z,96279.88
2023-01-29T08:01:29.583Z,96275.53
2023-01-29T08:04:31.519Z,96278.50
2023-01-29T08:07:33.550Z,96285.31
2023-01-29T08:10:37.721Z,96283.41
2023-01-29T08:13:39.599Z,96287.59
2023-01-29T08:16:41.699Z,96287.84
2023-01-29T08:19:43.526Z,96298.84
2023-01-29T08:22:45.976Z,96304.38
2023-01-29T08:25:49.182Z,96316.84
2023-01-29T08:28:51.163Z,96306.41
2023-01-29T08:31:53.520Z,96304.81
2023-01-29T08:34:55.598Z,96308.84
2023-01-29T08:37:59.576Z,96311.59
2023-01-29T08:41:03.231Z,96312.44
2023-01-29T08:44:05.613Z,96317.09
2023-01-29T08:47:07.827Z,96327.09
2023-01-29T08:50:11.056Z,96329.91
2023-01-29T08:53:13.823Z,96345.75
2023-01-29T08:56:17.104Z,96349.72
2023-01-29T08:59:19.630Z,96349.69
2023-01-29T09:02:21.453Z,96348.53
2023-01-29T09:05:23.384Z,96354.19
2023-01-29T09:08:25.709Z,96349.31
2023-01-29T09:11:30.317Z,96344.56
2023-01-29T09:14:32.442Z,96346.94
2023-01-29T09:17:34.312Z,96354.47
2023-01-29T09:20:36.091Z,96345.63
2023-01-29T09:23:38.241Z,96351.66
2023-01-29T09:26:41.634Z,96352.41
2023-01-29T09:29:43.880Z,96360.09
2023-01-29T09:32:54.511Z,96360.09
2023-01-29T09:35:57.025Z,96362.56
2023-01-29T09:38:58.864Z,96366.06
2023-01-29T09:42:11.140Z,96359.63
2023-01-29T09:45:16.826Z,96365.94
2023-01-29T09:48:22.314Z,96363.88
2023-01-29T09:51:28.676Z,96369.28
2023-01-29T09:54:36.489Z,96365.88
2023-01-29T09:57:47.169Z,96378.78
2023-01-29T10:00:56.292Z,96377.13
2023-01-29T10:04:08.170Z,96379.13
2023-01-29T10:07:32.021Z,96380.00
2023-01-29T10:10:48.763Z,96388.75
2023-01-29T10:14:00.916Z,96387.81
2023-01-29T10:17:28.048Z,96384.19
2023-01-29T10:20:43.546Z,96384.50
2023-01-29T10:23:50.296Z,96384.94
2023-01-29T10:26:53.086Z,96384.94
2023-01-29T10:29:57.111Z,96377.84
2023-01-29T10:33:02.695Z,96374.63
2023-01-29T10:36:09.810Z,96366.59
2023-01-29T10:39:16.268Z,96369.38
2023-01-29T10:42:32.469Z,96363.53
2023-01-29T10:45:43.484Z,96358.91
2023-01-29T10:48:56.196Z,96361.53
2023-01-29T10:52:18.219Z,96364.34
2023-01-29T10:55:33.856Z,96359.19
2023-01-29T10:58:41.518Z,96355.56
2023-01-29T11:01:45.281Z,96340.28
2023-01-29T11:04:47.971Z,96328.66
2023-01-29T11:08:01.339Z,96326.47
2023-01-29T11:11:08.568Z,96322.50
2023-01-29T11:14:15.640Z,96311.41
2023-01-29T11:17:21.864Z,96318.50
2023-01-29T11:20:27.208Z,96318.50
2023-01-29T11:23:31.716Z,96313.69
2023-01-29T11:26:38.086Z,96318.59
2023-01-29T11:29:43.931Z,96315.78
2023-01-29T11:32:51.626Z,96314.50
2023-01-29T11:35:53.599Z,96306.25
2023-01-29T11:39:12.308Z,96304.31
2023-01-29T11:42:20.307Z,96289.44
2023-01-29T11:45:26.377Z,96288.41
2023-01-29T11:48:39.921Z,96289.44
2023-01-29T11:51:42.124Z,96282.53
2023-01-29T11:54:49.296Z,96280.44
2023-01-29T11:57:55.446Z,96278.09
2023-01-29T12:00:59.066Z,96263.81
2023-01-29T12:04:04.273Z,96263.47
2023-01-29T12:07:14.207Z,96264.69
2023-01-29T12:10:33.759Z,96255.94
2023-01-29T12:13:35.376Z,96252.28
2023-01-29T12:16:43.461Z,96251.03
2023-01-29T12:19:51.751Z,96251.50
2023-01-29T12:23:03.983Z,96244.47
2023-01-29T12:26:11.561Z,96229.75
2023-01-29T12:29:24.642Z,96226.53
2023-01-29T12:32:34.099Z,96223.88
2023-01-29T12:35:44.236Z,96210.38
2023-01-29T12:38:46.305Z,96208.47
2023-01-29T12:41:53.711Z,96198.78
2023-01-29T12:45:00.157Z,96200.56
2023-01-29T12:48:08.221Z,96196.00
2023-01-29T12:51:17.442Z,96198.94
2023-01-29T12:54:26.848Z,96198.94
2023-01-29T12:57:40.426Z,96187.16
2023-01-29T13:00:46.790Z,96186.63
2023-01-29T13:03:53.868Z,96180.88
2023-01-29T13:07:11.860Z,96176.84
2023-01-29T13:10:18.844Z,96178.81
2023-01-29T13:13:28.995Z,96177.00
2023-01-29T13:16:38.220Z,96168.59
2023-01-29T13:19:46.074Z,96163.75
2023-01-29T13:22:52.619Z,96170.63
2023-01-29T13:25:55.056Z,96158.88
2023-01-29T13:28:58.526Z,96160.84
2023-01-29T13:32:03.754Z,96155.94
2023-01-29T13:35:14.816Z,96160.34
2023-01-29T13:38:26.775Z,96153.09
2023-01-29T13:41:37.524Z,96147.47
2023-01-29T13:44:40.990Z,96158.09
2023-01-29T13:47:43.157Z,96154.25
2023-01-29T13:50:47.186Z,96159.78
2023-01-29T13:53:57.733Z,96154.97
2023-01-29T13:57:01.742Z,96162.34
2023-01-29T14:00:06.672Z,96154.97
2023-01-29T14:04:03.352Z,96160.78
2023-01-29T14:07:49.095Z,96154.97
2023-01-29T14:11:29.005Z,96157.38
2023-01-29T14:14:58.985Z,96149.84
2023-01-29T14:18:27.291Z,96151.00
2023-01-29T14:21:31.115Z,96146.84
2023-01-29T14:24:35.215Z,96153.75
2023-01-29T14:27:38.258Z,96144.81
2023-01-29T14:30:48.505Z,96131.22
2023-01-29T14:33:53.861Z,96130.50
2023-01-29T14:37:01.804Z,96130.56
2023-01-29T14:40:21.308Z,96122.94
2023-01-29T14:43:23.211Z,96119.03
2023-01-29T14:46:45.744Z,96113.91
2023-01-29T14:49:55.475Z,96113.09
2023-01-29T14:53:01.958Z,96118.53
2023-01-29T14:56:13.422Z,96116.38
2023-01-29T14:59:20.000Z,96111.56
2023-01-29T15:02:27.476Z,96112.16
2023-01-29T15:05:36.017Z,96114.59
2023-01-29T15:08:44.873Z,96123.25
2023-01-29T15:11:58.672Z,96126.38
2023-01-29T15:15:08.172Z,96113.59
2023-01-29T15:18:16.241Z,96120.63
2023-01-29T15:21:20.262Z,96117.63
2023-01-29T15:24:22.280Z,96122.75
2023-01-29T15:27:24.998Z,96119.28
2023-01-29T15:30:32.917Z,96126.94
2023-01-29T15:33:37.188Z,96119.38
2023-01-29T15:36:41.451Z,96128.22
2023-01-29T15:39:45.778Z,96134.06
2023-01-29T15:42:49.288Z,96133.72
2023-01-29T15:45:53.783Z,96133.88
2023-01-29T15:49:00.447Z,96127.13
2023-01-29T15:52:09.860Z,96125.56
2023-01-29T15:55:15.588Z,96126.75
2023-01-29T15:58:25.787Z,96128.50
2023-01-29T16:01:29.059Z,96122.06
2023-01-29T16:04:33.605Z,96118.56
2023-01-29T16:07:36.905Z,96128.63
2023-01-29T16:10:42.112Z,96125.78
2023-01-29T16:13:46.013Z,96135.59
2023-01-29T16:16:48.477Z,96132.84
2023-01-29T16:19:59.338Z,96139.03
2023-01-29T16:23:02.792Z,96138.34
2023-01-29T16:26:09.952Z,96147.75
2023-01-29T16:29:15.120Z,96145.69
2023-01-29T16:32:19.388Z,96153.81
2023-01-29T16:35:24.200Z,96151.84
2023-01-29T16:38:34.814Z,96156.00
2023-01-29T16:41:38.317Z,96150.97
2023-01-29T16:44:46.431Z,96152.53
2023-01-29T16:48:01.748Z,96162.03
2023-01-29T16:51:07.236Z,96167.66
2023-01-29T16:54:14.636Z,96172.00
2023-01-29T16:57:21.235Z,96161.00
2023-01-29T17:00:28.955Z,96165.66
2023-01-29T17:03:35.250Z,96171.59
2023-01-29T17:06:43.189Z,96173.63
2023-01-29T17:09:48.967Z,96183.69
2023-01-29T17:12:57.803Z,96174.94
2023-01-29T17:16:02.188Z,96170.41
2023-01-29T17:19:18.656Z,96169.53
2023-01-29T17:22:23.455Z,96171.19
2023-01-29T17:25:26.719Z,96177.59
2023-01-29T17:28:30.273Z,96175.72
2023-01-29T17:31:33.477Z,96176.97
2023-01-29T17:34:36.601Z,96175.13
2023-01-29T17:37:43.137Z,96176.00
2023-01-29T17:40:50.724Z,96185.94
2023-01-29T17:43:53.246Z,96181.59
2023-01-29T17:46:56.166Z,96183.94
2023-01-29T17:50:00.690Z,96184.44
2023-01-29T17:53:05.986Z,96183.44
2023-01-29T17:56:15.821Z,96178.84
2023-01-29T17:59:21.029Z,96170.59
2023-01-29T18:02:28.904Z,96172.16
2023-01-29T18:05:32.115Z,96167.44
2023-01-29T18:08:42.611Z,96163.91
2023-01-29T18:11:45.436Z,96163.81
2023-01-29T18:14:48.840Z,96159.28
2023-01-29T18:17:52.371Z,96157.91
2023-01-29T18:20:56.997Z,96152.50
2023-01-29T18:24:02.435Z,96155.56
2023-01-29T18:27:05.828Z,96149.66
2023-01-29T18:30:11.818Z,96154.34
2023-01-29T18:33:17.950Z,96152.00
2023-01-29T18:36:20.598Z,96151.69
2023-01-29T18:39:26.570Z,96147.06
2023-01-29T18:42:32.987Z,96143.72
2023-01-29T18:45:37.433Z,96153.00
2023-01-29T18:48:41.746Z,96151.50
2023-01-29T18:51:45.649Z,96155.25
2023-01-29T18:54:51.168Z,96161.06
2023-01-29T18:58:25.458Z,96160.47
2023-01-29T19:01:17.931Z,96161.88
2023-01-29T19:04:21.557Z,96164.00
2023-01-29T19:07:24.990Z,96157.13
2023-01-29T19:10:30.035Z,96155.56
2023-01-29T19:13:33.906Z,96155.25
2023-01-29T19:16:37.100Z,96152.31
2023-01-29T19:19:39.678Z,96150.53
2023-01-29T19:22:42.560Z,96148.56
2023-01-29T19:25:49.530Z,96136.94
2023-01-29T19:28:53.411Z,96140.09
2023-01-29T19:31:56.925Z,96134.59
2023-01-29T19:35:00.259Z,96133.59
2023-01-29T19:38:05.270Z,96131.25
2023-01-29T19:41:09.059Z,96125.13
2023-01-29T19:44:13.532Z,96124.03
2023-01-29T19:47:20.246Z,96130.91
2023-01-29T19:50:23.665Z,96129.84
2023-01-29T19:53:30.315Z,96126.66
2023-01-29T19:56:35.851Z,96130.75
2023-01-29T19:59:39.204Z,96123.03
2023-01-29T20:02:43.217Z,96123.97
2023-01-29T20:05:46.447Z,96131.63
2023-01-29T20:08:50.539Z,96128.72
2023-01-29T20:11:55.609Z,96135.28
2023-01-29T20:15:00.404Z,96140.09
2023-01-29T20:18:03.787Z,96137.38
2023-01-29T20:21:10.292Z,96126.97
2023-01-29T20:24:13.389Z,96135.78
2023-01-29T20:27:18.947Z,96127.78
2023-01-29T20:30:21.812Z,96135.97
2023-01-29T20:33:27.229Z,96129.47
2023-01-29T20:36:30.434Z,96125.16
2023-01-29T20:39:36.584Z,96128.56
2023-01-29T20:42:41.336Z,96119.47
2023-01-29T20:45:49.064Z,96124.22
2023-01-29T20:48:54.144Z,96135.09
2023-01-29T20:51:56.544Z,96116.63
2023-01-29T20:54:59.925Z,96114.19
2023-01-29T20:58:05.501Z,96115.56
2023-01-29T21:01:09.874Z,96113.19
2023-01-29T21:04:15.188Z,96120.56
2023-01-29T21:07:18.685Z,96115.41
2023-01-29T21:10:21.773Z,96110.31
2023-01-29T21:13:26.196Z,96105.13
2023-01-29T21:16:30.505Z,96106.03
2023-01-29T21:19:33.673Z,96109.91
2023-01-29T21:22:36.893Z,96105.69
2023-01-29T21:25:39.534Z,96102.81
2023-01-29T21:28:43.940Z,96100.09
2023-01-29T21:31:46.475Z,96099.41
2023-01-29T21:34:49.396Z,96095.09
2023-01-29T21:37:52.943Z,96095.22
2023-01-29T21:40:59.494Z,96094.31
2023-01-29T21:44:03.307Z,96086.84
2023-01-29T21:47:06.050Z,96085.44
2023-01-29T21:50:09.468Z,96085.66
2023-01-29T21:53:11.616Z,96082.69
2023-01-29T21:56:13.983Z,96082.34
2023-01-29T21:59:17.265Z,96086.31
2023-01-29T22:02:20.327Z,96082.19
2023-01-29T22:05:23.706Z,96080.78
2023-01-29T22:08:25.493Z,96087.88
2023-01-29T22:11:27.966Z,96078.75
2023-01-29T22:14:31.446Z,96078.25
2023-01-29T22:17:33.262Z,96077.09
2023-01-29T22:20:35.707Z,96070.81
2023-01-29T22:23:37.699Z,96063.56
2023-01-29T22:26:39.649Z,96056.91
2023-01-29T22:29:42.910Z,96045.22
2023-01-29T22:32:44.853Z,96042.88
2023-01-29T22:35:46.866Z,96036.16
2023-01-29T22:38:48.768Z,96041.66
2023-01-29T22:41:50.568Z,96036.06
2023-01-29T22:44:53.819Z,96026.16
2023-01-29T22:47:56.938Z,96026.66
2023-01-29T22:50:59.811Z,96022.94
2023-01-29T22:54:01.633Z,96016.06
2023-01-29T22:57:04.070Z,96022.06
2023-01-29T23:00:12.358Z,96007.56
2023-01-29T23:03:14.427Z,96011.56
2023-01-29T23:06:17.217Z,96004.03
2023-01-29T23:09:19.492Z,96008.91
2023-01-29T23:12:22.013Z,96001.38
2023-01-29T23:15:28.243Z,96003.13
2023-01-29T23:18:32.085Z,95997.59
2023-01-29T23:21:34.079Z,96005.97
2023-01-29T23:24:36.795Z,96007.53
2023-01-29T23:27:38.830Z,96005.28
2023-01-29T23:30:42.706Z,95995.97
2023-01-29T23:33:44.738Z,95988.22
2023-01-29T23:36:47.186Z,95993.63
2023-01-29T23:39:50.216Z,95994.00
2023-01-29T23:42:52.347Z,95990.44
2023-01-29T23:45:56.279Z,95991.31
2023-01-29T23:48:58.634Z,95985.81
2023-01-29T23:52:00.856Z,95980.31
2023-01-29T23:55:03.048Z,95974.31
2023-01-29T23:58:05.186Z,95970.75
